sensor_id;sensor_type;location;lat;lon;timestamp;temperature;humidity
70336;SHT31;57756;47.408;18.940;2024-03-08T00:01:47;5.33;99.99
70336;SHT31;57756;47.408;18.940;2024-03-08T00:04:14;5.33;99.99
70336;SHT31;57756;47.408;18.940;2024-03-08T00:06:41;5.34;99.99
70336;SHT31;57756;47.408;18.940;2024-03-08T00:09:06;5.37;99.99
70336;SHT31;57756;47.408;18.940;2024-03-08T00:11:33;5.29;99.99
70336;SHT31;57756;47.408;18.940;2024-03-08T00:13:59;5.27;99.99
70336;SHT31;57756;47.408;18.940;2024-03-08T00:16:24;5.26;99.99
70336;SHT31;57756;47.408;18.940;2024-03-08T00:18:49;5.22;99.99
70336;SHT31;57756;47.408;18.940;2024-03-08T00:21:15;5.22;99.99
70336;SHT31;57756;47.408;18.940;2024-03-08T00:23:40;5.25;99.99
70336;SHT31;57756;47.408;18.940;2024-03-08T00:26:06;5.26;99.99
70336;SHT31;57756;47.408;18.940;2024-03-08T00:28:32;5.33;99.99
70336;SHT31;57756;47.408;18.940;2024-03-08T00:30:59;5.30;99.99
70336;SHT31;57756;47.408;18.940;2024-03-08T00:33:25;5.26;99.99
70336;SHT31;57756;47.408;18.940;2024-03-08T00:35:50;5.26;99.99
70336;SHT31;57756;47.408;18.940;2024-03-08T00:38:16;5.22;99.99
70336;SHT31;57756;47.408;18.940;2024-03-08T00:40:41;5.26;99.99
70336;SHT31;57756;47.408;18.940;2024-03-08T00:43:07;5.18;99.99
70336;SHT31;57756;47.408;18.940;2024-03-08T00:45:32;5.19;99.99
70336;SHT31;57756;47.408;18.940;2024-03-08T00:47:57;5.26;99.99
70336;SHT31;57756;47.408;18.940;2024-03-08T00:50:24;5.22;99.99
70336;SHT31;57756;47.408;18.940;2024-03-08T00:52:49;5.29;99.99
70336;SHT31;57756;47.408;18.940;2024-03-08T00:55:15;5.32;99.99
70336;SHT31;57756;47.408;18.940;2024-03-08T00:57:40;5.25;99.99
70336;SHT31;57756;47.408;18.940;2024-03-08T01:00:06;5.32;99.99
70336;SHT31;57756;47.408;18.940;2024-03-08T01:02:35;5.25;99.99
70336;SHT31;57756;47.408;18.940;2024-03-08T01:05:01;5.32;99.99
70336;SHT31;57756;47.408;18.940;2024-03-08T01:07:26;5.34;99.99
70336;SHT31;57756;47.408;18.940;2024-03-08T01:09:52;5.36;99.99
70336;SHT31;57756;47.408;18.940;2024-03-08T01:12:17;5.29;99.99
70336;SHT31;57756;47.408;18.940;2024-03-08T01:14:43;5.23;99.99
70336;SHT31;57756;47.408;18.940;2024-03-08T01:17:08;5.27;99.99
70336;SHT31;57756;47.408;18.940;2024-03-08T01:19:34;5.33;99.99
70336;SHT31;57756;47.408;18.940;2024-03-08T01:22:00;5.30;99.99
70336;SHT31;57756;47.408;18.940;2024-03-08T01:24:25;5.34;99.99
70336;SHT31;57756;47.408;18.940;2024-03-08T01:26:51;5.30;99.99
70336;SHT31;57756;47.408;18.940;2024-03-08T01:29:16;5.32;99.99
70336;SHT31;57756;47.408;18.940;2024-03-08T01:31:42;5.25;99.99
70336;SHT31;57756;47.408;18.940;2024-03-08T01:34:07;5.22;99.99
70336;SHT31;57756;47.408;18.940;2024-03-08T01:36:33;5.27;99.99
70336;SHT31;57756;47.408;18.940;2024-03-08T01:38:58;5.22;99.99
70336;SHT31;57756;47.408;18.940;2024-03-08T01:41:24;5.23;99.99
70336;SHT31;57756;47.408;18.940;2024-03-08T01:43:49;5.25;99.99
70336;SHT31;57756;47.408;18.940;2024-03-08T01:46:18;5.27;99.99
70336;SHT31;57756;47.408;18.940;2024-03-08T01:48:44;5.27;99.99
70336;SHT31;57756;47.408;18.940;2024-03-08T01:51:10;5.18;99.99
70336;SHT31;57756;47.408;18.940;2024-03-08T01:53:37;5.20;99.99
70336;SHT31;57756;47.408;18.940;2024-03-08T01:56:03;5.19;99.99
70336;SHT31;57756;47.408;18.940;2024-03-08T01:58:29;5.16;99.99
70336;SHT31;57756;47.408;18.940;2024-03-08T02:00:56;5.15;99.99
70336;SHT31;57756;47.408;18.940;2024-03-08T02:03:22;5.15;99.99
70336;SHT31;57756;47.408;18.940;2024-03-08T02:05:48;5.15;99.99
70336;SHT31;57756;47.408;18.940;2024-03-08T02:08:14;5.18;99.99
70336;SHT31;57756;47.408;18.940;2024-03-08T02:10:40;5.23;99.99
70336;SHT31;57756;47.408;18.940;2024-03-08T02:13:10;5.22;99.99
70336;SHT31;57756;47.408;18.940;2024-03-08T02:15:59;5.16;99.99
70336;SHT31;57756;47.408;18.940;2024-03-08T02:18:25;5.11;99.99
70336;SHT31;57756;47.408;18.940;2024-03-08T02:20:58;5.16;99.99
70336;SHT31;57756;47.408;18.940;2024-03-08T02:23:24;5.15;99.99
70336;SHT31;57756;47.408;18.940;2024-03-08T02:25:50;5.15;99.99
70336;SHT31;57756;47.408;18.940;2024-03-08T02:28:16;5.11;99.99
70336;SHT31;57756;47.408;18.940;2024-03-08T02:30:44;5.16;99.99
70336;SHT31;57756;47.408;18.940;2024-03-08T02:33:13;5.19;99.99
70336;SHT31;57756;47.408;18.940;2024-03-08T02:35:42;5.16;99.99
70336;SHT31;57756;47.408;18.940;2024-03-08T02:38:07;5.13;99.99
70336;SHT31;57756;47.408;18.940;2024-03-08T02:40:33;5.11;99.99
70336;SHT31;57756;47.408;18.940;2024-03-08T02:42:58;5.12;99.99
70336;SHT31;57756;47.408;18.940;2024-03-08T02:45:24;5.13;99.99
70336;SHT31;57756;47.408;18.940;2024-03-08T02:47:49;5.13;99.99
70336;SHT31;57756;47.408;18.940;2024-03-08T02:50:15;5.19;99.99
70336;SHT31;57756;47.408;18.940;2024-03-08T02:52:44;5.20;99.99
70336;SHT31;57756;47.408;18.940;2024-03-08T02:55:11;5.19;99.99
70336;SHT31;57756;47.408;18.940;2024-03-08T02:57:40;5.16;99.99
70336;SHT31;57756;47.408;18.940;2024-03-08T03:00:06;5.19;99.99
70336;SHT31;57756;47.408;18.940;2024-03-08T03:02:36;5.06;99.99
70336;SHT31;57756;47.408;18.940;2024-03-08T03:05:01;5.12;99.99
70336;SHT31;57756;47.408;18.940;2024-03-08T03:07:32;5.16;99.99
70336;SHT31;57756;47.408;18.940;2024-03-08T03:09:59;5.13;99.99
70336;SHT31;57756;47.408;18.940;2024-03-08T03:12:26;5.06;99.99
70336;SHT31;57756;47.408;18.940;2024-03-08T03:14:52;5.09;99.99
70336;SHT31;57756;47.408;18.940;2024-03-08T03:17:17;5.05;99.99
70336;SHT31;57756;47.408;18.940;2024-03-08T03:19:43;5.05;99.99
70336;SHT31;57756;47.408;18.940;2024-03-08T03:22:08;5.08;99.99
70336;SHT31;57756;47.408;18.940;2024-03-08T03:24:35;5.00;99.99
70336;SHT31;57756;47.408;18.940;2024-03-08T03:27:04;5.00;99.99
70336;SHT31;57756;47.408;18.940;2024-03-08T03:29:36;5.06;99.99
70336;SHT31;57756;47.408;18.940;2024-03-08T03:32:01;5.12;99.99
70336;SHT31;57756;47.408;18.940;2024-03-08T03:34:29;5.15;99.99
70336;SHT31;57756;47.408;18.940;2024-03-08T03:36:54;5.15;99.99
70336;SHT31;57756;47.408;18.940;2024-03-08T03:39:21;5.13;99.99
70336;SHT31;57756;47.408;18.940;2024-03-08T03:41:48;5.15;99.99
70336;SHT31;57756;47.408;18.940;2024-03-08T03:44:16;5.15;99.99
70336;SHT31;57756;47.408;18.940;2024-03-08T03:46:42;5.13;99.99
70336;SHT31;57756;47.408;18.940;2024-03-08T03:49:10;5.18;99.99
70336;SHT31;57756;47.408;18.940;2024-03-08T03:51:36;5.15;99.99
70336;SHT31;57756;47.408;18.940;2024-03-08T03:54:01;5.15;99.99
70336;SHT31;57756;47.408;18.940;2024-03-08T03:56:29;5.16;99.99
70336;SHT31;57756;47.408;18.940;2024-03-08T03:58:55;5.12;99.99
70336;SHT31;57756;47.408;18.940;2024-03-08T04:01:21;5.16;99.99
70336;SHT31;57756;47.408;18.940;2024-03-08T04:03:47;5.15;99.99
70336;SHT31;57756;47.408;18.940;2024-03-08T04:06:12;5.11;99.99
70336;SHT31;57756;47.408;18.940;2024-03-08T04:08:38;5.12;99.99
70336;SHT31;57756;47.408;18.940;2024-03-08T04:11:03;5.09;99.99
70336;SHT31;57756;47.408;18.940;2024-03-08T04:13:29;5.05;99.99
70336;SHT31;57756;47.408;18.940;2024-03-08T04:15:54;5.02;99.99
70336;SHT31;57756;47.408;18.940;2024-03-08T04:18:20;5.04;99.99
70336;SHT31;57756;47.408;18.940;2024-03-08T04:20:45;5.11;99.99
70336;SHT31;57756;47.408;18.940;2024-03-08T04:23:11;5.08;99.99
70336;SHT31;57756;47.408;18.940;2024-03-08T04:25:37;5.02;99.99
70336;SHT31;57756;47.408;18.940;2024-03-08T04:28:02;5.11;99.99
70336;SHT31;57756;47.408;18.940;2024-03-08T04:30:28;5.06;99.99
70336;SHT31;57756;47.408;18.940;2024-03-08T04:32:54;5.04;99.99
70336;SHT31;57756;47.408;18.940;2024-03-08T04:35:20;5.04;99.99
70336;SHT31;57756;47.408;18.940;2024-03-08T04:37:46;5.11;99.99
70336;SHT31;57756;47.408;18.940;2024-03-08T04:40:11;5.11;99.99
70336;SHT31;57756;47.408;18.940;2024-03-08T04:42:37;5.05;99.99
70336;SHT31;57756;47.408;18.940;2024-03-08T04:45:04;5.02;99.99
70336;SHT31;57756;47.408;18.940;2024-03-08T04:47:30;5.05;99.99
70336;SHT31;57756;47.408;18.940;2024-03-08T04:49:56;5.05;99.99
70336;SHT31;57756;47.408;18.940;2024-03-08T04:52:22;5.05;99.99
70336;SHT31;57756;47.408;18.940;2024-03-08T04:54:47;5.00;99.99
70336;SHT31;57756;47.408;18.940;2024-03-08T04:57:13;4.99;99.99
70336;SHT31;57756;47.408;18.940;2024-03-08T04:59:39;4.96;99.99
70336;SHT31;57756;47.408;18.940;2024-03-08T05:02:05;4.98;99.99
70336;SHT31;57756;47.408;18.940;2024-03-08T05:04:30;4.98;99.99
70336;SHT31;57756;47.408;18.940;2024-03-08T05:06:55;5.00;99.99
70336;SHT31;57756;47.408;18.940;2024-03-08T05:09:21;5.00;99.99
70336;SHT31;57756;47.408;18.940;2024-03-08T05:11:47;5.09;99.99
70336;SHT31;57756;47.408;18.940;2024-03-08T05:14:13;5.11;99.99
70336;SHT31;57756;47.408;18.940;2024-03-08T05:16:46;5.00;99.99
70336;SHT31;57756;47.408;18.940;2024-03-08T05:19:15;5.05;99.99
70336;SHT31;57756;47.408;18.940;2024-03-08T05:21:47;5.06;99.99
70336;SHT31;57756;47.408;18.940;2024-03-08T05:24:13;5.11;99.99
70336;SHT31;57756;47.408;18.940;2024-03-08T05:26:39;5.06;99.99
70336;SHT31;57756;47.408;18.940;2024-03-08T05:29:05;4.98;99.99
70336;SHT31;57756;47.408;18.940;2024-03-08T05:31:42;4.99;99.99
70336;SHT31;57756;47.408;18.940;2024-03-08T05:34:10;4.98;99.99
70336;SHT31;57756;47.408;18.940;2024-03-08T05:36:36;5.04;99.99
70336;SHT31;57756;47.408;18.940;2024-03-08T05:39:01;4.99;99.99
70336;SHT31;57756;47.408;18.940;2024-03-08T05:41:27;4.96;99.99
70336;SHT31;57756;47.408;18.940;2024-03-08T05:43:52;4.92;99.99
70336;SHT31;57756;47.408;18.940;2024-03-08T05:46:18;4.99;99.99
70336;SHT31;57756;47.408;18.940;2024-03-08T05:48:44;5.02;99.99
70336;SHT31;57756;47.408;18.940;2024-03-08T05:51:10;5.04;99.99
70336;SHT31;57756;47.408;18.940;2024-03-08T05:53:35;5.02;99.99
70336;SHT31;57756;47.408;18.940;2024-03-08T05:56:00;4.93;99.99
70336;SHT31;57756;47.408;18.940;2024-03-08T05:58:27;5.00;99.99
70336;SHT31;57756;47.408;18.940;2024-03-08T06:00:55;4.99;99.99
70336;SHT31;57756;47.408;18.940;2024-03-08T06:03:21;4.93;99.99
70336;SHT31;57756;47.408;18.940;2024-03-08T06:05:49;4.93;99.99
70336;SHT31;57756;47.408;18.940;2024-03-08T06:08:15;5.00;99.99
70336;SHT31;57756;47.408;18.940;2024-03-08T06:10:41;5.08;99.99
70336;SHT31;57756;47.408;18.940;2024-03-08T06:13:07;4.96;99.99
70336;SHT31;57756;47.408;18.940;2024-03-08T06:15:32;4.98;99.99
70336;SHT31;57756;47.408;18.940;2024-03-08T06:17:58;4.95;99.99
70336;SHT31;57756;47.408;18.940;2024-03-08T06:20:23;4.98;99.99
70336;SHT31;57756;47.408;18.940;2024-03-08T06:22:52;4.99;99.99
70336;SHT31;57756;47.408;18.940;2024-03-08T06:25:17;5.08;99.99
70336;SHT31;57756;47.408;18.940;2024-03-08T06:27:43;5.08;99.99
70336;SHT31;57756;47.408;18.940;2024-03-08T06:30:10;5.13;99.99
70336;SHT31;57756;47.408;18.940;2024-03-08T06:32:36;5.12;99.99
70336;SHT31;57756;47.408;18.940;2024-03-08T06:35:03;5.08;99.99
70336;SHT31;57756;47.408;18.940;2024-03-08T06:37:34;5.12;99.99
70336;SHT31;57756;47.408;18.940;2024-03-08T06:39:59;5.11;99.99
70336;SHT31;57756;47.408;18.940;2024-03-08T06:42:26;5.06;99.99
70336;SHT31;57756;47.408;18.940;2024-03-08T06:44:52;5.09;99.99
70336;SHT31;57756;47.408;18.940;2024-03-08T06:47:20;5.12;99.99
70336;SHT31;57756;47.408;18.940;2024-03-08T06:49:46;5.08;99.99
70336;SHT31;57756;47.408;18.940;2024-03-08T06:52:11;5.15;99.99
70336;SHT31;57756;47.408;18.940;2024-03-08T06:54:37;5.08;99.99
70336;SHT31;57756;47.408;18.940;2024-03-08T06:57:05;5.05;99.99
70336;SHT31;57756;47.408;18.940;2024-03-08T06:59:31;5.04;99.99
70336;SHT31;57756;47.408;18.940;2024-03-08T07:01:57;5.09;99.99
70336;SHT31;57756;47.408;18.940;2024-03-08T07:04:24;5.18;99.99
70336;SHT31;57756;47.408;18.940;2024-03-08T07:06:54;5.23;99.99
70336;SHT31;57756;47.408;18.940;2024-03-08T07:09:19;5.15;99.99
70336;SHT31;57756;47.408;18.940;2024-03-08T07:11:45;5.11;99.99
70336;SHT31;57756;47.408;18.940;2024-03-08T07:14:12;5.22;99.99
70336;SHT31;57756;47.408;18.940;2024-03-08T07:16:37;5.23;99.99
70336;SHT31;57756;47.408;18.940;2024-03-08T07:19:04;5.23;99.99
70336;SHT31;57756;47.408;18.940;2024-03-08T07:21:30;5.27;99.99
70336;SHT31;57756;47.408;18.940;2024-03-08T07:23:56;5.30;99.99
70336;SHT31;57756;47.408;18.940;2024-03-08T07:26:25;5.36;99.99
70336;SHT31;57756;47.408;18.940;2024-03-08T07:28:50;5.39;99.99
70336;SHT31;57756;47.408;18.940;2024-03-08T07:31:16;5.43;99.99
70336;SHT31;57756;47.408;18.940;2024-03-08T07:33:52;5.47;99.99
70336;SHT31;57756;47.408;18.940;2024-03-08T07:36:18;5.47;99.99
70336;SHT31;57756;47.408;18.940;2024-03-08T07:38:44;5.51;99.99
70336;SHT31;57756;47.408;18.940;2024-03-08T07:41:12;5.42;99.99
70336;SHT31;57756;47.408;18.940;2024-03-08T07:43:38;5.43;99.99
70336;SHT31;57756;47.408;18.940;2024-03-08T07:46:03;5.47;99.99
70336;SHT31;57756;47.408;18.940;2024-03-08T07:48:28;5.46;99.99
70336;SHT31;57756;47.408;18.940;2024-03-08T07:50:55;5.47;99.99
70336;SHT31;57756;47.408;18.940;2024-03-08T07:53:21;5.50;99.99
70336;SHT31;57756;47.408;18.940;2024-03-08T07:55:46;5.44;99.99
70336;SHT31;57756;47.408;18.940;2024-03-08T07:58:12;5.48;99.99
70336;SHT31;57756;47.408;18.940;2024-03-08T08:00:38;5.48;99.99
70336;SHT31;57756;47.408;18.940;2024-03-08T08:03:04;5.53;99.99
70336;SHT31;57756;47.408;18.940;2024-03-08T08:05:30;5.58;99.99
70336;SHT31;57756;47.408;18.940;2024-03-08T08:08:00;5.44;99.99
70336;SHT31;57756;47.408;18.940;2024-03-08T08:10:28;5.48;99.99
70336;SHT31;57756;47.408;18.940;2024-03-08T08:12:54;5.48;99.99
70336;SHT31;57756;47.408;18.940;2024-03-08T08:15:19;5.53;99.99
70336;SHT31;57756;47.408;18.940;2024-03-08T08:17:45;5.55;99.99
70336;SHT31;57756;47.408;18.940;2024-03-08T08:20:11;5.55;99.99
70336;SHT31;57756;47.408;18.940;2024-03-08T08:22:40;5.63;99.99
70336;SHT31;57756;47.408;18.940;2024-03-08T08:25:07;5.58;99.99
70336;SHT31;57756;47.408;18.940;2024-03-08T08:27:32;5.63;99.99
70336;SHT31;57756;47.408;18.940;2024-03-08T08:29:58;5.64;99.99
70336;SHT31;57756;47.408;18.940;2024-03-08T08:32:24;5.63;99.99
70336;SHT31;57756;47.408;18.940;2024-03-08T08:34:49;5.70;99.99
70336;SHT31;57756;47.408;18.940;2024-03-08T08:37:14;5.61;99.99
70336;SHT31;57756;47.408;18.940;2024-03-08T08:39:41;5.64;99.99
70336;SHT31;57756;47.408;18.940;2024-03-08T08:42:07;5.58;99.99
70336;SHT31;57756;47.408;18.940;2024-03-08T08:44:34;5.74;99.99
70336;SHT31;57756;47.408;18.940;2024-03-08T08:47:00;5.74;99.99
70336;SHT31;57756;47.408;18.940;2024-03-08T08:49:25;5.88;99.99
70336;SHT31;57756;47.408;18.940;2024-03-08T08:51:51;5.91;99.99
70336;SHT31;57756;47.408;18.940;2024-03-08T08:54:17;5.95;99.99
70336;SHT31;57756;47.408;18.940;2024-03-08T08:56:42;5.98;99.99
70336;SHT31;57756;47.408;18.940;2024-03-08T08:59:12;6.11;99.99
70336;SHT31;57756;47.408;18.940;2024-03-08T09:01:40;6.01;99.99
70336;SHT31;57756;47.408;18.940;2024-03-08T09:04:05;6.02;99.99
70336;SHT31;57756;47.408;18.940;2024-03-08T09:06:31;6.02;99.99
70336;SHT31;57756;47.408;18.940;2024-03-08T09:08:56;6.12;99.99
70336;SHT31;57756;47.408;18.940;2024-03-08T09:11:23;6.09;99.99
70336;SHT31;57756;47.408;18.940;2024-03-08T09:13:50;6.23;99.99
70336;SHT31;57756;47.408;18.940;2024-03-08T09:16:15;6.29;99.99
70336;SHT31;57756;47.408;18.940;2024-03-08T09:18:41;6.36;99.99
70336;SHT31;57756;47.408;18.940;2024-03-08T09:21:07;6.32;99.99
70336;SHT31;57756;47.408;18.940;2024-03-08T09:23:35;6.30;99.99
70336;SHT31;57756;47.408;18.940;2024-03-08T09:26:01;6.39;99.99
70336;SHT31;57756;47.408;18.940;2024-03-08T09:28:28;6.37;99.99
70336;SHT31;57756;47.408;18.940;2024-03-08T09:30:54;6.49;99.99
70336;SHT31;57756;47.408;18.940;2024-03-08T09:33:20;6.46;99.99
70336;SHT31;57756;47.408;18.940;2024-03-08T09:35:46;6.66;99.99
70336;SHT31;57756;47.408;18.940;2024-03-08T09:38:12;6.61;99.99
70336;SHT31;57756;47.408;18.940;2024-03-08T09:40:40;6.66;99.99
70336;SHT31;57756;47.408;18.940;2024-03-08T09:43:06;6.83;99.78
70336;SHT31;57756;47.408;18.940;2024-03-08T09:45:31;6.78;99.99
70336;SHT31;57756;47.408;18.940;2024-03-08T09:48:01;6.85;99.99
70336;SHT31;57756;47.408;18.940;2024-03-08T09:50:26;6.85;99.99
70336;SHT31;57756;47.408;18.940;2024-03-08T09:52:55;6.88;99.54
70336;SHT31;57756;47.408;18.940;2024-03-08T09:55:22;6.88;99.54
70336;SHT31;57756;47.408;18.940;2024-03-08T09:57:48;6.85;99.92
70336;SHT31;57756;47.408;18.940;2024-03-08T10:00:33;6.84;99.99
70336;SHT31;57756;47.408;18.940;2024-03-08T10:03:02;6.77;99.99
70336;SHT31;57756;47.408;18.940;2024-03-08T10:05:28;6.81;99.99
70336;SHT31;57756;47.408;18.940;2024-03-08T10:07:54;6.85;99.70
70336;SHT31;57756;47.408;18.940;2024-03-08T10:10:19;6.92;99.75
70336;SHT31;57756;47.408;18.940;2024-03-08T10:12:46;6.91;99.99
70336;SHT31;57756;47.408;18.940;2024-03-08T10:15:11;6.80;99.49
70336;SHT31;57756;47.408;18.940;2024-03-08T10:17:37;6.78;99.70
70336;SHT31;57756;47.408;18.940;2024-03-08T10:20:13;6.77;99.84
70336;SHT31;57756;47.408;18.940;2024-03-08T10:22:40;6.97;99.87
70336;SHT31;57756;47.408;18.940;2024-03-08T10:25:10;6.99;99.99
70336;SHT31;57756;47.408;18.940;2024-03-08T10:27:36;7.05;99.99
70336;SHT31;57756;47.408;18.940;2024-03-08T10:30:02;7.19;99.87
70336;SHT31;57756;47.408;18.940;2024-03-08T10:32:28;7.26;99.99
70336;SHT31;57756;47.408;18.940;2024-03-08T10:34:53;7.18;99.55
70336;SHT31;57756;47.408;18.940;2024-03-08T10:37:21;7.09;99.07
70336;SHT31;57756;47.408;18.940;2024-03-08T10:39:59;7.12;98.86
70336;SHT31;57756;47.408;18.940;2024-03-08T10:42:28;7.05;99.89
70336;SHT31;57756;47.408;18.940;2024-03-08T10:45:15;7.14;99.55
70336;SHT31;57756;47.408;18.940;2024-03-08T10:47:41;7.19;99.99
70336;SHT31;57756;47.408;18.940;2024-03-08T10:50:18;7.11;99.99
70336;SHT31;57756;47.408;18.940;2024-03-08T10:52:51;7.05;99.08
70336;SHT31;57756;47.408;18.940;2024-03-08T10:55:20;7.08;98.52
70336;SHT31;57756;47.408;18.940;2024-03-08T10:57:46;7.08;98.53
70336;SHT31;57756;47.408;18.940;2024-03-08T11:00:14;7.11;99.14
70336;SHT31;57756;47.408;18.940;2024-03-08T11:02:45;7.08;99.99
70336;SHT31;57756;47.408;18.940;2024-03-08T11:05:11;7.18;99.49
70336;SHT31;57756;47.408;18.940;2024-03-08T11:07:42;7.18;99.09
70336;SHT31;57756;47.408;18.940;2024-03-08T11:10:19;7.06;99.43
70336;SHT31;57756;47.408;18.940;2024-03-08T11:12:45;7.15;98.61
70336;SHT31;57756;47.408;18.940;2024-03-08T11:15:12;7.14;99.64
70336;SHT31;57756;47.408;18.940;2024-03-08T11:20:10;7.50;98.93
70336;SHT31;57756;47.408;18.940;2024-03-08T11:22:42;7.67;98.93
70336;SHT31;57756;47.408;18.940;2024-03-08T11:25:31;7.74;97.77
70336;SHT31;57756;47.408;18.940;2024-03-08T11:28:17;7.83;98.07
70336;SHT31;57756;47.408;18.940;2024-03-08T11:31:21;7.78;97.90
70336;SHT31;57756;47.408;18.940;2024-03-08T11:33:34;7.77;96.86
70336;SHT31;57756;47.408;18.940;2024-03-08T11:38:32;7.90;96.47
70336;SHT31;57756;47.408;18.940;2024-03-08T11:40:58;8.13;96.07
70336;SHT31;57756;47.408;18.940;2024-03-08T11:43:23;8.32;96.11
70336;SHT31;57756;47.408;18.940;2024-03-08T11:45:50;8.48;94.01
70336;SHT31;57756;47.408;18.940;2024-03-08T11:48:15;8.22;94.95
70336;SHT31;57756;47.408;18.940;2024-03-08T11:50:41;8.15;94.14
70336;SHT31;57756;47.408;18.940;2024-03-08T11:53:08;8.12;94.30
70336;SHT31;57756;47.408;18.940;2024-03-08T11:55:34;8.12;93.91
70336;SHT31;57756;47.408;18.940;2024-03-08T11:58:02;8.18;95.05
70336;SHT31;57756;47.408;18.940;2024-03-08T12:00:27;8.08;94.40
70336;SHT31;57756;47.408;18.940;2024-03-08T12:05:29;8.09;94.72
70336;SHT31;57756;47.408;18.940;2024-03-08T12:07:59;8.13;93.76
70336;SHT31;57756;47.408;18.940;2024-03-08T12:10:25;8.16;93.19
70336;SHT31;57756;47.408;18.940;2024-03-08T12:12:55;8.25;93.41
70336;SHT31;57756;47.408;18.940;2024-03-08T12:15:23;8.11;93.43
70336;SHT31;57756;47.408;18.940;2024-03-08T12:17:51;8.01;93.39
70336;SHT31;57756;47.408;18.940;2024-03-08T12:22:51;7.94;93.88
70336;SHT31;57756;47.408;18.940;2024-03-08T12:25:18;7.90;95.06
70336;SHT31;57756;47.408;18.940;2024-03-08T12:27:44;7.98;94.74
70336;SHT31;57756;47.408;18.940;2024-03-08T12:30:23;8.09;94.19
70336;SHT31;57756;47.408;18.940;2024-03-08T12:32:59;8.09;93.68
70336;SHT31;57756;47.408;18.940;2024-03-08T12:35:29;7.95;94.32
70336;SHT31;57756;47.408;18.940;2024-03-08T12:37:56;7.88;95.39
70336;SHT31;57756;47.408;18.940;2024-03-08T12:40:29;7.87;94.87
70336;SHT31;57756;47.408;18.940;2024-03-08T12:42:58;7.90;94.87
70336;SHT31;57756;47.408;18.940;2024-03-08T12:45:24;7.85;94.48
70336;SHT31;57756;47.408;18.940;2024-03-08T12:47:58;7.84;94.58
70336;SHT31;57756;47.408;18.940;2024-03-08T12:50:25;7.81;94.75
70336;SHT31;57756;47.408;18.940;2024-03-08T12:52:51;7.78;95.05
70336;SHT31;57756;47.408;18.940;2024-03-08T12:55:18;7.85;94.50
70336;SHT31;57756;47.408;18.940;2024-03-08T12:57:44;7.84;95.53
70336;SHT31;57756;47.408;18.940;2024-03-08T13:00:09;7.78;94.58
70336;SHT31;57756;47.408;18.940;2024-03-08T13:02:44;7.85;94.40
70336;SHT31;57756;47.408;18.940;2024-03-08T13:05:10;7.95;95.73
70336;SHT31;57756;47.408;18.940;2024-03-08T13:07:36;7.87;93.85
70336;SHT31;57756;47.408;18.940;2024-03-08T13:10:02;7.92;94.80
70336;SHT31;57756;47.408;18.940;2024-03-08T13:12:28;7.99;95.16
70336;SHT31;57756;47.408;18.940;2024-03-08T13:14:53;7.91;93.74
70336;SHT31;57756;47.408;18.940;2024-03-08T13:17:21;7.95;94.49
70336;SHT31;57756;47.408;18.940;2024-03-08T13:19:47;7.99;93.73
70336;SHT31;57756;47.408;18.940;2024-03-08T13:22:13;7.98;94.23
70336;SHT31;57756;47.408;18.940;2024-03-08T13:24:42;8.01;94.91
70336;SHT31;57756;47.408;18.940;2024-03-08T13:27:07;8.02;94.45
70336;SHT31;57756;47.408;18.940;2024-03-08T13:29:47;8.05;94.62
70336;SHT31;57756;47.408;18.940;2024-03-08T13:32:14;8.06;93.31
70336;SHT31;57756;47.408;18.940;2024-03-08T13:34:43;8.04;93.96
70336;SHT31;57756;47.408;18.940;2024-03-08T13:37:10;7.99;93.10
70336;SHT31;57756;47.408;18.940;2024-03-08T13:39:37;7.97;93.53
70336;SHT31;57756;47.408;18.940;2024-03-08T13:42:11;7.99;93.89
70336;SHT31;57756;47.408;18.940;2024-03-08T13:44:42;8.12;92.53
70336;SHT31;57756;47.408;18.940;2024-03-08T13:47:08;8.11;92.48
70336;SHT31;57756;47.408;18.940;2024-03-08T13:49:33;8.06;92.31
70336;SHT31;57756;47.408;18.940;2024-03-08T13:51:59;8.02;92.97
70336;SHT31;57756;47.408;18.940;2024-03-08T13:54:24;8.08;92.67
70336;SHT31;57756;47.408;18.940;2024-03-08T13:56:50;8.19;92.31
70336;SHT31;57756;47.408;18.940;2024-03-08T13:59:19;8.09;92.51
70336;SHT31;57756;47.408;18.940;2024-03-08T14:01:47;8.05;91.83
70336;SHT31;57756;47.408;18.940;2024-03-08T14:04:14;7.98;92.07
70336;SHT31;57756;47.408;18.940;2024-03-08T14:06:39;7.90;92.10
70336;SHT31;57756;47.408;18.940;2024-03-08T14:09:05;7.92;92.61
70336;SHT31;57756;47.408;18.940;2024-03-08T14:11:32;7.84;93.14
70336;SHT31;57756;47.408;18.940;2024-03-08T14:13:58;7.85;92.84
70336;SHT31;57756;47.408;18.940;2024-03-08T14:16:23;7.87;93.20
70336;SHT31;57756;47.408;18.940;2024-03-08T14:18:49;7.94;92.89
70336;SHT31;57756;47.408;18.940;2024-03-08T14:21:14;7.85;93.22
70336;SHT31;57756;47.408;18.940;2024-03-08T14:23:43;7.80;94.20
70336;SHT31;57756;47.408;18.940;2024-03-08T14:26:08;7.90;93.13
70336;SHT31;57756;47.408;18.940;2024-03-08T14:28:35;7.87;93.28
70336;SHT31;57756;47.408;18.940;2024-03-08T14:31:00;7.84;93.35
70336;SHT31;57756;47.408;18.940;2024-03-08T14:33:28;7.85;93.06
70336;SHT31;57756;47.408;18.940;2024-03-08T14:35:53;7.81;93.64
70336;SHT31;57756;47.408;18.940;2024-03-08T14:38:19;7.75;92.72
70336;SHT31;57756;47.408;18.940;2024-03-08T14:40:45;7.83;93.15
70336;SHT31;57756;47.408;18.940;2024-03-08T14:43:12;7.84;93.10
70336;SHT31;57756;47.408;18.940;2024-03-08T14:45:38;7.84;92.95
70336;SHT31;57756;47.408;18.940;2024-03-08T14:48:04;7.74;92.36
70336;SHT31;57756;47.408;18.940;2024-03-08T14:50:30;7.71;93.35
70336;SHT31;57756;47.408;18.940;2024-03-08T14:52:58;7.74;93.26
70336;SHT31;57756;47.408;18.940;2024-03-08T14:55:23;7.63;93.75
70336;SHT31;57756;47.408;18.940;2024-03-08T14:57:49;7.66;93.41
70336;SHT31;57756;47.408;18.940;2024-03-08T15:00:17;7.64;93.63
70336;SHT31;57756;47.408;18.940;2024-03-08T15:02:55;7.60;94.49
70336;SHT31;57756;47.408;18.940;2024-03-08T15:05:21;7.69;93.78
70336;SHT31;57756;47.408;18.940;2024-03-08T15:07:51;7.71;93.78
70336;SHT31;57756;47.408;18.940;2024-03-08T15:10:17;7.67;94.35
70336;SHT31;57756;47.408;18.940;2024-03-08T15:12:45;7.56;94.88
70336;SHT31;57756;47.408;18.940;2024-03-08T15:15:14;7.59;94.58
70336;SHT31;57756;47.408;18.940;2024-03-08T15:17:43;7.53;95.27
70336;SHT31;57756;47.408;18.940;2024-03-08T15:20:14;7.53;95.18
70336;SHT31;57756;47.408;18.940;2024-03-08T15:22:50;7.50;95.28
70336;SHT31;57756;47.408;18.940;2024-03-08T15:25:20;7.49;96.02
70336;SHT31;57756;47.408;18.940;2024-03-08T15:27:49;7.50;95.43
70336;SHT31;57756;47.408;18.940;2024-03-08T15:30:15;7.57;95.33
70336;SHT31;57756;47.408;18.940;2024-03-08T15:32:45;7.52;95.80
70336;SHT31;57756;47.408;18.940;2024-03-08T15:35:13;7.50;95.83
70336;SHT31;57756;47.408;18.940;2024-03-08T15:37:40;7.53;95.55
70336;SHT31;57756;47.408;18.940;2024-03-08T15:40:11;7.43;95.27